Rogers City, MI (49779)

9:50 PM EST on January 20, 2017 (GMT -0500)
MWCX2417 | | Change Station
Active Advisory: Dense Fog Advisory

Elev 600 ft 47.40 °N, 90.70 °W | Updated 34 days ago

Fog
Fog
11.0 °F
Feels Like -9 °F
N
23.0
Wind Variable Wind from North

Today
High -- | Low -- °F
--% Chance of Precip.
Yesterday
High -- | Low -- °F
Precip. -- in
Pressure 29.73 in
Visibility 0.5 miles
Clouds Overcast 300 ft
Windchill -9 °F
Dew Point Not available.
Humidity Not available.
Rainfall in
Snow Depth Not available.
8:07 AM 5:25 PM
Last Quarter, 39% visible
METAR KPZQ 210234Z AUTO 00000KT 1/2SM FG OVC003 01/00 A2973 RMK AO2 T00060001
Pressure 29.73 in
Visibility 0.5 miles
Clouds Overcast 300 ft
Windchill -9 °F
Dew Point Not available.
Humidity Not available.
Rainfall in
Snow Depth Not available.
8:07 AM 5:25 PM
Last Quarter, 39% visible
METAR KPZQ 210234Z AUTO 00000KT 1/2SM FG OVC003 01/00 A2973 RMK AO2 T00060001

Get Your Daily Forecast Email!

Thanks for signing up!

Be on the lookout for a verification email in your inbox.

You'll start receiving the daily forecast at 8 AM.

×

10-Day Weather Forecast

Almanac

Astronomy

Jan. 20, 2017 Rise Set
Actual Time
Civil Twilight
Nautical Twilight
Astronomical Twilight
Moon
Length of Visible Light
Length of Day
Tomorrow will be .
, % of the Moon is Illuminated

Today's Extremes

State Highs State Lows

Community

WunderPhotos

Upload Photos

1,962,540 photos uploaded!

WunderBlog® & News

Nearby

Air Quality

  Air Quality AQ Index Pollutant
Not available.

Snow Depth

Station Depth Elevation

Earthquake Activity

City Distance Mag. Time & Date
Minimum magnitude displayed is 2.5.

Coastal Water Temperatures

Place Temperature

Stations

Nearby Weather Stations

Station Location Temp. Windchill Dew Point Humidity Wind Precip. Elev Updated Type
                   

Watches & Warnings

Dense Fog Advisory
Issued: 4:30 PM EST Jan. 20, 2017 – National Weather Service

... Dense fog advisory in effect from 10 PM this evening to noon
EST Saturday...

The National Weather Service in Gaylord has issued a dense fog
advisory... which is in effect from 10 PM this evening to noon EST
Saturday.

* Visibility... fog will develop again tonight with visibilities
of one quarter of a mile or less.

* Impacts... low visibilities will lead to difficult driving
conditions. Also... temperatures dropping back to around freezing
tonight may allow light icing on untreated surfaces.

Precautionary/preparedness actions...

A dense fog advisory means visibilities will frequently be
reduced to less than one quarter mile. If driving... slow down...
use your headlights... and leave plenty of distance ahead of you.